Archival Weather

Tamale

Tamale, Ghana (DGLE)

Report from: Thursday, December 7, 2023 9:00 AM UTC
Current time: Sunday, April 21, 2024 8:49 PM UTC

Current weather – Weather history – Daily summaries
Weather forecast

Temperature31.0°C (87.8°F)
Heat index33.8°C (92.8°F)
Dew point21.0°C (69.8°F)
Winds 3 kts (1.5 m/s, 3.5 mph) Southeast (140°)
Visibility5 mi. (8 km)
Altimeter29.94 in.Hg (1014 mB)
Relative humidity55 %
Density altitude2,141 ft. (652 m)
Remarks No significant changes expected in the next two hours
Flight conditions Marginal Visual Meteorological Conditions
Raw dataDGLE 070900Z 14003KT 8000 HZ 31/21 Q1014 NOSIG
An error has occurred. This application may no longer respond until reloaded. Reload 🗙